Time;durP1;ratioP1;P1;durP2;ratioP2;P2;SDS_P1;SDS_P2;PMS_P1;PMS_P2;Temp;Humidity;BMP_temperature;BMP_pressure;BME280_temperature;BME280_humidity;BME280_pressure;Samples;Min_cycle;Max_cycle;Signal;HPM_P1;HPM_P2
2021/09/29 00:01:55;;;;;;;9.95;0.62;;;13.40;99.90;;;;;;4411234;32;20152;-66
2021/09/29 00:04:21;;;;;;;0.50;0.50;;;13.30;99.90;;;;;;4412706;32;20089;-65
2021/09/29 00:06:47;;;;;;;3.85;0.85;;;13.30;99.90;;;;;;4411509;32;20514;-65
2021/09/29 00:09:12;;;;;;;0.52;0.40;;;13.30;99.90;;;;;;4414799;32;20121;-65
2021/09/29 00:11:38;;;;;;;0.68;0.68;;;13.40;99.90;;;;;;4414734;32;20117;-65
2021/09/29 00:14:03;;;;;;;0.52;0.52;;;13.50;99.90;;;;;;4414999;32;20436;-65
2021/09/29 00:16:29;;;;;;;0.80;0.80;;;13.40;99.90;;;;;;4414297;32;20094;-64
2021/09/29 00:18:54;;;;;;;0.65;0.60;;;13.40;99.90;;;;;;4414704;32;20069;-65
2021/09/29 00:21:20;;;;;;;0.70;0.70;;;13.20;99.90;;;;;;4415375;32;20057;-64
2021/09/29 00:23:47;;;;;;;2.72;0.50;;;13.20;99.90;;;;;;4414777;32;20061;-66
2021/09/29 00:26:12;;;;;;;10.20;1.10;;;13.20;99.90;;;;;;4413800;32;20077;-65
2021/09/29 00:28:38;;;;;;;0.40;0.40;;;13.20;99.90;;;;;;4414440;32;20082;-66
2021/09/29 00:31:05;;;;;;;0.40;0.40;;;13.10;99.90;;;;;;4414499;32;20368;-65
2021/09/29 00:33:34;;;;;;;0.55;0.52;;;13.10;99.90;;;;;;4414784;32;20085;-65
2021/09/29 00:35:59;;;;;;;0.45;0.45;;;13.20;99.90;;;;;;4411906;32;20137;-66
2021/09/29 00:38:25;;;;;;;2.90;0.80;;;13.10;99.90;;;;;;4398834;32;20070;-65
2021/09/29 00:40:51;;;;;;;0.60;0.60;;;13.10;99.90;;;;;;4398651;32;20065;-65
2021/09/29 00:43:16;;;;;;;1.12;0.52;;;13.10;99.90;;;;;;4400244;32;20499;-65
2021/09/29 00:45:42;;;;;;;0.82;0.65;;;13.20;99.90;;;;;;4399511;32;20070;-66
2021/09/29 00:48:07;;;;;;;1.23;1.12;;;13.20;99.90;;;;;;4398692;32;20355;-65
2021/09/29 00:50:34;;;;;;;0.40;0.40;;;13.20;99.90;;;;;;4399096;32;20082;-65
2021/09/29 00:53:00;;;;;;;0.57;0.57;;;13.10;99.90;;;;;;4398986;32;20078;-65
2021/09/29 00:55:26;;;;;;;0.57;0.57;;;13.20;99.90;;;;;;4396723;32;20151;-65
2021/09/29 00:57:51;;;;;;;0.30;0.30;;;13.20;99.90;;;;;;4397822;32;20062;-64
2021/09/29 01:00:17;;;;;;;0.60;0.60;;;13.30;99.90;;;;;;4399501;32;20069;-64
2021/09/29 01:02:43;;;;;;;0.40;0.40;;;13.30;99.90;;;;;;4399109;32;20065;-64
2021/09/29 01:05:10;;;;;;;0.85;0.50;;;13.30;99.90;;;;;;4400142;32;20069;-64
2021/09/29 01:07:57;;;;;;;0.40;0.40;;;13.30;99.90;;;;;;4398653;32;20073;-64
2021/09/29 01:10:30;;;;;;;0.50;0.50;;;13.30;99.90;;;;;;4398503;32;20132;-64
2021/09/29 01:13:07;;;;;;;1.15;0.77;;;13.30;99.90;;;;;;4399304;32;20061;-65
2021/09/29 01:15:42;;;;;;;0.40;0.40;;;13.30;99.90;;;;;;4398830;32;20563;-64
2021/09/29 01:18:10;;;;;;;1.27;0.40;;;13.30;99.90;;;;;;4397251;32;20121;-64
2021/09/29 01:20:44;;;;;;;0.40;0.40;;;13.30;99.90;;;;;;4398563;32;20085;-64
2021/09/29 01:23:32;;;;;;;0.50;0.50;;;13.20;99.90;;;;;;4398392;32;20065;-64
2021/09/29 01:26:01;;;;;;;1.45;0.85;;;13.30;99.90;;;;;;4395659;32;20093;-64
2021/09/29 01:28:30;;;;;;;0.47;0.47;;;13.20;99.90;;;;;;4397905;32;20138;-64
2021/09/29 01:30:58;;;;;;;0.98;0.70;;;13.20;99.90;;;;;;4398596;32;20062;-64
2021/09/29 01:33:25;;;;;;;0.43;0.43;;;13.20;99.90;;;;;;4397958;32;20451;-64
2021/09/29 01:35:51;;;;;;;0.55;0.55;;;13.10;99.90;;;;;;4400973;32;20512;-65
2021/09/29 01:38:16;;;;;;;0.77;0.77;;;13.10;99.90;;;;;;4414061;32;20066;-64
2021/09/29 01:40:42;;;;;;;1.87;0.65;;;13.10;99.90;;;;;;4412496;32;20090;-64
2021/09/29 01:43:07;;;;;;;0.60;0.60;;;13.10;99.90;;;;;;4413408;32;20069;-64
2021/09/29 01:45:35;;;;;;;0.40;0.40;;;13.20;99.90;;;;;;4413249;32;20070;-64
2021/09/29 01:48:01;;;;;;;0.50;0.50;;;13.20;99.90;;;;;;4412631;32;20469;-64
2021/09/29 01:50:28;;;;;;;1.75;0.75;;;13.20;99.90;;;;;;4414747;32;20116;-64
2021/09/29 01:52:56;;;;;;;1.20;0.80;;;13.30;99.90;;;;;;4413097;32;20085;-64
2021/09/29 01:55:22;;;;;;;0.50;0.50;;;13.20;99.90;;;;;;4412313;32;20385;-64
2021/09/29 01:57:49;;;;;;;0.55;0.55;;;13.20;99.90;;;;;;4411031;32;20065;-64
2021/09/29 02:00:16;;;;;;;0.65;0.65;;;13.20;99.90;;;;;;4412686;32;20085;-64
2021/09/29 02:02:43;;;;;;;0.45;0.45;;;13.10;99.90;;;;;;4413783;32;20117;-64
2021/09/29 02:05:09;;;;;;;1.35;0.50;;;13.10;99.90;;;;;;4414198;32;20066;-64
2021/09/29 02:07:35;;;;;;;0.60;0.60;;;13.10;99.90;;;;;;4413832;32;20464;-64
2021/09/29 02:10:03;;;;;;;2.40;0.60;;;13.10;99.90;;;;;;4412116;32;20249;-64
2021/09/29 02:12:29;;;;;;;0.40;0.40;;;13.10;99.90;;;;;;4413257;32;20077;-65
2021/09/29 02:14:54;;;;;;;1.17;0.70;;;13.10;99.90;;;;;;4412692;32;20120;-64
2021/09/29 02:17:19;;;;;;;0.45;0.45;;;13.20;99.90;;;;;;4412771;32;20057;-64
2021/09/29 02:19:46;;;;;;;0.52;0.52;;;13.20;99.90;;;;;;4412870;32;20082;-64
2021/09/29 02:22:15;;;;;;;0.65;0.65;;;13.20;99.90;;;;;;4412331;32;20066;-64
2021/09/29 02:24:40;;;;;;;0.45;0.45;;;13.20;99.90;;;;;;4412288;32;20086;-64
2021/09/29 02:27:06;;;;;;;0.52;0.52;;;13.20;99.90;;;;;;4413084;32;20062;-64
2021/09/29 02:29:31;;;;;;;0.40;0.40;;;13.30;99.90;;;;;;4411762;32;20123;-64
2021/09/29 02:31:57;;;;;;;0.70;0.70;;;13.30;99.90;;;;;;4413422;32;20078;-64
2021/09/29 02:34:22;;;;;;;0.45;0.45;;;13.30;99.90;;;;;;4413161;32;20073;-65
2021/09/29 02:36:48;;;;;;;0.50;0.50;;;13.40;99.90;;;;;;4412597;32;20571;-64
2021/09/29 02:39:13;;;;;;;0.32;0.32;;;13.40;99.90;;;;;;4412901;32;20112;-65
2021/09/29 02:41:39;;;;;;;0.22;0.22;;;13.30;99.90;;;;;;4413189;32;20231;-65
2021/09/29 02:44:08;;;;;;;1.35;0.60;;;13.40;99.90;;;;;;4412240;32;20484;-65
2021/09/29 02:46:35;;;;;;;1.00;0.60;;;13.30;99.90;;;;;;4412956;32;20516;-65
2021/09/29 02:49:00;;;;;;;3.40;1.05;;;13.20;99.90;;;;;;4413260;32;20074;-65
2021/09/29 02:51:26;;;;;;;0.55;0.55;;;13.30;99.90;;;;;;4413442;32;20162;-65
2021/09/29 02:53:51;;;;;;;1.17;0.70;;;13.20;99.90;;;;;;4411891;32;20081;-65
2021/09/29 02:56:17;;;;;;;2.42;0.82;;;13.30;99.90;;;;;;4410854;32;20082;-65
2021/09/29 02:58:42;;;;;;;0.40;0.40;;;13.30;99.90;;;;;;4412087;32;20069;-65
2021/09/29 03:01:08;;;;;;;0.50;0.50;;;13.30;99.90;;;;;;4398846;32;20467;-65
2021/09/29 03:03:33;;;;;;;0.40;0.40;;;13.30;99.90;;;;;;4412322;32;20073;-65
2021/09/29 03:05:59;;;;;;;0.40;0.40;;;13.30;99.90;;;;;;4412369;32;20069;-65
2021/09/29 03:08:24;;;;;;;1.40;1.00;;;13.30;99.90;;;;;;4410752;32;20105;-64
2021/09/29 03:10:50;;;;;;;0.45;0.45;;;13.30;99.90;;;;;;4412567;32;20503;-64
2021/09/29 03:13:15;;;;;;;0.60;0.60;;;13.40;99.90;;;;;;4412292;32;20069;-64
2021/09/29 03:15:41;;;;;;;0.50;0.50;;;13.40;99.90;;;;;;4413369;32;20065;-64
2021/09/29 03:18:07;;;;;;;4.95;0.88;;;13.50;99.90;;;;;;4412166;32;20198;-64
2021/09/29 03:20:33;;;;;;;0.55;0.55;;;13.60;99.90;;;;;;4413189;32;20064;-64
2021/09/29 03:22:58;;;;;;;0.68;0.68;;;13.70;99.90;;;;;;4412623;32;20141;-64
2021/09/29 03:25:24;;;;;;;1.85;1.10;;;13.60;99.90;;;;;;4410651;32;20078;-64
2021/09/29 03:27:50;;;;;;;0.80;0.80;;;13.60;99.90;;;;;;4411746;32;20082;-64
2021/09/29 03:30:15;;;;;;;2.92;0.73;;;13.70;99.90;;;;;;4412796;32;20107;-64
2021/09/29 03:32:42;;;;;;;1.20;0.75;;;13.70;99.90;;;;;;4412798;32;20074;-64
2021/09/29 03:35:09;;;;;;;0.47;0.47;;;13.70;99.90;;;;;;4412920;32;20397;-64
2021/09/29 03:37:34;;;;;;;1.33;0.85;;;13.80;99.90;;;;;;4398574;32;20073;-64
2021/09/29 03:40:00;;;;;;;5.95;0.50;;;13.80;99.90;;;;;;4397154;32;20476;-64
2021/09/29 03:42:25;;;;;;;1.05;0.70;;;13.80;99.90;;;;;;4398149;32;20079;-64
2021/09/29 03:44:52;;;;;;;0.70;0.50;;;13.80;99.90;;;;;;4398859;32;20122;-64
2021/09/29 03:47:18;;;;;;;3.50;0.98;;;13.80;99.90;;;;;;4400357;32;20073;-65
2021/09/29 03:49:44;;;;;;;1.40;0.75;;;13.80;99.90;;;;;;4399156;32;20090;-64
2021/09/29 03:52:10;;;;;;;0.50;0.50;;;13.80;99.90;;;;;;4399167;32;20070;-65
2021/09/29 03:54:35;;;;;;;3.25;1.23;;;13.80;99.90;;;;;;4398866;32;20125;-64
2021/09/29 03:57:01;;;;;;;4.40;0.93;;;13.80;99.90;;;;;;4399147;32;20369;-64
2021/09/29 03:59:27;;;;;;;2.50;1.00;;;13.80;99.90;;;;;;4400093;32;20082;-65
2021/09/29 04:01:53;;;;;;;0.65;0.65;;;13.80;99.90;;;;;;4399338;32;20070;-65
2021/09/29 04:04:19;;;;;;;4.45;1.17;;;13.90;99.90;;;;;;4398971;32;20135;-64
2021/09/29 04:06:45;;;;;;;1.48;0.85;;;13.90;99.90;;;;;;4400015;32;20062;-64
2021/09/29 04:09:10;;;;;;;3.58;1.50;;;13.90;99.90;;;;;;4399165;32;20054;-65
2021/09/29 04:11:36;;;;;;;4.50;1.52;;;13.90;99.90;;;;;;4399926;32;20557;-65
2021/09/29 04:14:02;;;;;;;1.95;0.65;;;13.90;99.90;;;;;;4399832;32;20081;-65
2021/09/29 04:16:27;;;;;;;1.12;0.70;;;13.90;99.90;;;;;;4398177;32;20073;-65
2021/09/29 04:18:53;;;;;;;3.78;1.08;;;13.90;99.90;;;;;;4398567;32;20646;-65
2021/09/29 04:21:19;;;;;;;0.80;0.75;;;13.90;99.90;;;;;;4394494;32;20101;-64
2021/09/29 04:23:44;;;;;;;7.68;1.60;;;14.00;99.90;;;;;;4406317;32;20069;-65
2021/09/29 04:26:10;;;;;;;3.83;0.75;;;14.00;99.90;;;;;;4412962;32;20129;-64
2021/09/29 04:28:35;;;;;;;4.87;1.48;;;14.00;99.90;;;;;;4415744;32;20470;-65
2021/09/29 04:31:02;;;;;;;6.93;1.87;;;14.00;99.90;;;;;;4414837;32;20086;-65
2021/09/29 04:33:28;;;;;;;1.55;0.73;;;14.00;99.90;;;;;;4413281;32;20169;-64
2021/09/29 04:35:54;;;;;;;3.35;1.33;;;14.00;99.90;;;;;;4411757;32;20073;-64
2021/09/29 04:38:20;;;;;;;1.73;0.85;;;14.10;99.90;;;;;;4397888;32;20156;-64
2021/09/29 04:40:46;;;;;;;1.58;1.12;;;14.10;99.90;;;;;;4407211;32;20137;-65
2021/09/29 04:43:11;;;;;;;3.75;0.82;;;14.10;99.90;;;;;;4412764;32;20062;-65
2021/09/29 04:45:37;;;;;;;2.90;1.00;;;14.10;99.90;;;;;;4414854;32;20073;-65
2021/09/29 04:48:04;;;;;;;1.23;0.93;;;14.20;99.90;;;;;;4414518;32;20417;-64
2021/09/29 04:50:30;;;;;;;1.62;1.12;;;14.10;99.90;;;;;;4414385;32;20396;-65
2021/09/29 04:52:57;;;;;;;3.55;1.67;;;14.20;99.90;;;;;;4412683;32;20081;-65
2021/09/29 04:55:22;;;;;;;2.55;1.65;;;14.20;99.90;;;;;;4412357;32;20068;-64
2021/09/29 04:57:48;;;;;;;2.37;1.00;;;14.20;99.90;;;;;;4413190;32;20061;-65
2021/09/29 05:00:14;;;;;;;4.32;2.05;;;14.30;99.90;;;;;;4410562;32;20483;-65
2021/09/29 05:02:44;;;;;;;5.18;1.33;;;14.30;99.90;;;;;;4401605;32;20540;-66
2021/09/29 05:05:11;;;;;;;5.33;1.13;;;14.20;99.90;;;;;;4410846;32;20531;-65
2021/09/29 05:07:39;;;;;;;0.60;0.55;;;14.20;99.90;;;;;;4413695;32;20058;-65
2021/09/29 05:10:05;;;;;;;4.10;1.70;;;14.20;99.90;;;;;;4413928;32;20087;-65
2021/09/29 05:12:32;;;;;;;16.95;1.30;;;14.30;99.90;;;;;;4409750;32;20078;-65
2021/09/29 05:14:58;;;;;;;3.10;1.25;;;14.20;99.90;;;;;;4394300;32;20090;-65
2021/09/29 05:17:25;;;;;;;23.25;1.40;;;14.20;99.90;;;;;;4398385;32;20081;-65
2021/09/29 05:19:52;;;;;;;6.45;1.75;;;14.30;99.90;;;;;;4405780;32;20102;-65
2021/09/29 05:22:18;;;;;;;2.97;1.50;;;14.30;99.90;;;;;;4415538;32;20400;-66
2021/09/29 05:24:44;;;;;;;6.18;1.37;;;14.30;99.90;;;;;;4412308;32;20074;-65
2021/09/29 05:27:10;;;;;;;4.97;1.02;;;14.30;99.90;;;;;;4383646;32;20062;-65
2021/09/29 05:29:38;;;;;;;1.42;1.15;;;14.40;99.90;;;;;;4401425;32;20089;-65
2021/09/29 05:32:04;;;;;;;2.30;0.70;;;14.40;99.90;;;;;;4379347;32;20069;-65
2021/09/29 05:34:30;;;;;;;2.05;1.25;;;14.40;99.90;;;;;;4402932;32;20180;-66
2021/09/29 05:36:57;;;;;;;4.78;1.20;;;14.40;99.90;;;;;;4407314;32;20058;-66
2021/09/29 05:39:23;;;;;;;3.03;0.95;;;14.40;99.90;;;;;;4401807;32;20139;-66
2021/09/29 05:41:49;;;;;;;2.85;1.17;;;14.40;99.90;;;;;;4408565;32;20136;-64
2021/09/29 05:44:15;;;;;;;1.67;1.40;;;14.50;99.90;;;;;;4402424;32;20114;-66
2021/09/29 05:46:40;;;;;;;2.65;1.30;;;14.40;99.90;;;;;;4405922;32;20204;-66
2021/09/29 05:49:06;;;;;;;1.20;1.10;;;14.40;99.90;;;;;;4397992;32;21116;-66
2021/09/29 05:51:31;;;;;;;10.38;1.55;;;14.40;99.90;;;;;;4393352;32;20094;-66
2021/09/29 05:53:57;;;;;;;4.32;1.73;;;14.40;99.90;;;;;;4394629;32;20089;-66
2021/09/29 05:56:23;;;;;;;1.85;1.37;;;14.40;99.90;;;;;;4396142;32;20069;-66
2021/09/29 05:58:48;;;;;;;2.12;1.55;;;14.50;99.90;;;;;;4393540;32;20106;-67
2021/09/29 06:01:14;;;;;;;7.28;1.25;;;14.50;99.90;;;;;;4387078;32;20897;-66
2021/09/29 06:03:39;;;;;;;1.55;1.08;;;14.50;99.90;;;;;;4397602;32;20168;-65
2021/09/29 06:06:05;;;;;;;1.80;0.98;;;14.50;99.90;;;;;;4394166;32;20126;-66
2021/09/29 06:08:31;;;;;;;2.17;1.08;;;14.50;99.90;;;;;;4396383;32;20062;-66
2021/09/29 06:10:58;;;;;;;3.50;1.02;;;14.60;99.90;;;;;;4393047;32;20081;-63
2021/09/29 06:13:24;;;;;;;1.30;1.00;;;14.60;99.90;;;;;;4398250;32;20086;-66
2021/09/29 06:15:50;;;;;;;0.85;0.73;;;14.60;99.90;;;;;;4400054;32;20562;-66
2021/09/29 06:18:16;;;;;;;2.30;1.23;;;14.60;99.90;;;;;;4385732;32;20081;-66
2021/09/29 06:20:47;;;;;;;0.95;0.77;;;14.60;99.90;;;;;;4385847;32;20077;-64
2021/09/29 06:25:25;;;;;;;3.67;1.12;;;14.60;99.90;;;;;;4453264;32;92045;-66
2021/09/29 06:27:51;;;;;;;3.00;0.95;;;14.70;99.90;;;;;;4456292;32;20073;-65
2021/09/29 06:30:17;;;;;;;1.37;1.23;;;14.70;99.90;;;;;;4454696;32;20647;-66
2021/09/29 06:32:43;;;;;;;2.42;1.20;;;14.70;99.90;;;;;;4457329;32;20079;-66
2021/09/29 06:35:09;;;;;;;7.50;2.00;;;14.70;99.90;;;;;;4450938;32;20076;-66
2021/09/29 06:37:39;;;;;;;6.03;1.27;;;14.80;99.90;;;;;;4457921;32;20081;-66
2021/09/29 06:40:07;;;;;;;2.90;1.73;;;14.80;99.90;;;;;;4451078;32;20068;-66
2021/09/29 06:42:33;;;;;;;2.72;1.33;;;14.80;99.90;;;;;;4452845;32;20154;-65
2021/09/29 06:44:59;;;;;;;7.57;1.60;;;14.90;99.90;;;;;;4450657;32;20065;-66
2021/09/29 06:47:24;;;;;;;7.22;1.30;;;14.90;99.90;;;;;;4448841;32;20111;-66
2021/09/29 06:49:49;;;;;;;3.92;1.15;;;14.90;99.90;;;;;;4453631;32;20167;-65
2021/09/29 06:52:15;;;;;;;1.50;1.25;;;14.90;99.90;;;;;;4453518;32;20072;-66
2021/09/29 06:54:40;;;;;;;3.08;1.17;;;15.00;99.90;;;;;;4456152;32;20587;-66
2021/09/29 06:57:07;;;;;;;4.82;2.03;;;15.00;99.90;;;;;;4460215;32;20133;-67
2021/09/29 06:59:34;;;;;;;1.30;0.80;;;15.00;99.90;;;;;;4452840;32;20196;-66
2021/09/29 07:01:59;;;;;;;5.87;2.10;;;15.00;99.90;;;;;;4452854;32;20628;-66
2021/09/29 07:04:24;;;;;;;3.67;1.17;;;15.00;99.90;;;;;;4453354;32;20178;-66
2021/09/29 07:06:50;;;;;;;7.75;2.25;;;15.10;99.90;;;;;;4452927;32;20578;-66
2021/09/29 07:09:15;;;;;;;3.53;1.65;;;15.10;99.90;;;;;;4452720;32;20092;-66
2021/09/29 07:11:41;;;;;;;2.00;1.02;;;15.10;99.90;;;;;;4452629;32;20523;-65
2021/09/29 07:14:06;;;;;;;3.05;1.35;;;15.10;99.90;;;;;;4454723;32;20139;-66
2021/09/29 07:16:32;;;;;;;3.47;0.80;;;15.20;99.90;;;;;;4452095;32;20084;-66
2021/09/29 07:19:02;;;;;;;2.47;1.33;;;15.10;99.90;;;;;;4455580;32;20112;-65
2021/09/29 07:21:27;;;;;;;21.08;2.10;;;15.20;99.90;;;;;;4453063;32;20072;-66
2021/09/29 07:23:53;;;;;;;14.82;2.50;;;15.30;99.90;;;;;;4458074;32;20767;-66
2021/09/29 07:26:18;;;;;;;4.05;1.40;;;15.30;99.90;;;;;;4455592;32;20119;-66
2021/09/29 07:28:44;;;;;;;4.87;1.85;;;15.30;99.90;;;;;;4457696;32;20146;-65
2021/09/29 07:31:09;;;;;;;9.23;1.77;;;15.30;99.90;;;;;;4453131;32;20133;-67
2021/09/29 07:33:36;;;;;;;17.85;1.58;;;15.30;99.90;;;;;;4445812;32;20084;-64
2021/09/29 07:36:02;;;;;;;7.45;2.47;;;15.30;99.90;;;;;;4441379;32;20352;-64
2021/09/29 07:38:28;;;;;;;6.15;1.27;;;15.40;99.90;;;;;;4430508;32;20081;-64
2021/09/29 07:40:54;;;;;;;2.37;1.45;;;15.40;99.90;;;;;;4438270;32;20297;-64
2021/09/29 07:43:20;;;;;;;6.70;1.52;;;15.40;99.90;;;;;;4438902;32;20130;-64
2021/09/29 07:45:45;;;;;;;10.20;2.03;;;15.40;99.90;;;;;;4443564;32;20557;-65
2021/09/29 07:48:11;;;;;;;4.78;1.40;;;15.40;99.90;;;;;;4430612;32;20496;-64
2021/09/29 07:50:36;;;;;;;7.93;2.53;;;15.40;99.90;;;;;;4437466;32;20106;-64
2021/09/29 07:53:02;;;;;;;3.58;1.45;;;15.40;99.90;;;;;;4437065;32;20489;-64
2021/09/29 07:55:28;;;;;;;4.82;1.55;;;15.40;99.90;;;;;;4438141;32;20169;-64
2021/09/29 07:57:53;;;;;;;2.10;1.02;;;15.40;99.90;;;;;;4439929;32;20101;-64
2021/09/29 08:00:19;;;;;;;5.07;1.77;;;15.40;99.90;;;;;;4435096;32;20085;-64
2021/09/29 08:02:46;;;;;;;2.70;1.37;;;15.40;99.90;;;;;;4443926;32;20202;-64
2021/09/29 08:05:14;;;;;;;3.62;1.40;;;15.40;99.90;;;;;;4439584;32;20146;-64
2021/09/29 08:07:40;;;;;;;2.50;1.50;;;15.40;99.90;;;;;;4434076;32;20436;-64
2021/09/29 08:10:08;;;;;;;2.37;1.27;;;15.30;99.90;;;;;;4440807;32;20084;-64
2021/09/29 08:12:34;;;;;;;4.70;1.65;;;15.30;99.90;;;;;;4437280;32;20075;-64
2021/09/29 08:14:59;;;;;;;2.28;1.60;;;15.20;99.90;;;;;;4440316;32;20104;-62
2021/09/29 08:17:25;;;;;;;6.45;1.62;;;15.20;99.90;;;;;;4441705;32;20084;-65
2021/09/29 08:19:51;;;;;;;2.85;1.80;;;15.20;99.90;;;;;;4441977;32;20092;-64
2021/09/29 08:22:16;;;;;;;1.35;1.08;;;15.20;99.90;;;;;;4443250;32;20111;-65
2021/09/29 08:25:11;;;;;;;6.20;2.03;;;15.10;99.90;;;;;;4448152;32;20076;-64
2021/09/29 08:27:37;;;;;;;7.72;2.85;;;15.20;99.90;;;;;;4425991;32;20110;-64
2021/09/29 08:30:12;;;;;;;13.85;2.60;;;15.20;99.90;;;;;;4444723;32;20097;-64
2021/09/29 08:40:18;;;;;;;5.62;1.08;;;15.20;99.90;;;;;;4421101;32;20117;-76
2021/09/29 08:48:09;;;;;;;1.62;1.52;;;15.20;99.90;;;;;;4409877;32;20077;-77
2021/09/29 08:52:15;;;;;;;1.20;0.93;;;15.20;99.90;;;;;;4429222;32;20553;-77
2021/09/29 08:53:40;;;;;;;4.62;1.60;;;15.20;99.90;;;;;;4421997;32;20069;-78
2021/09/29 09:16:40;;;;;;;6.12;1.50;;;15.30;99.90;;;;;;4414885;32;20073;-77
2021/09/29 09:18:25;;;;;;;5.57;1.83;;;15.30;99.90;;;;;;4398259;32;20085;-77
2021/09/29 09:20:58;;;;;;;1.23;1.12;;;15.30;99.90;;;;;;4408124;32;20483;-76
2021/09/29 09:23:34;;;;;;;1.62;1.27;;;15.40;99.90;;;;;;4403754;32;20085;-77
2021/09/29 09:26:12;;;;;;;3.50;1.40;;;15.40;99.90;;;;;;4410175;32;20076;-78
2021/09/29 09:28:39;;;;;;;3.90;1.87;;;15.40;99.90;;;;;;4402985;32;20558;-77
2021/09/29 09:31:16;;;;;;;1.42;0.90;;;15.30;99.90;;;;;;4413743;32;20057;-78
2021/09/29 09:33:53;;;;;;;5.75;1.23;;;15.30;99.90;;;;;;4403608;32;20093;-76
2021/09/29 09:36:28;;;;;;;5.72;1.30;;;15.30;99.90;;;;;;4412638;32;20193;-75
2021/09/29 09:38:54;;;;;;;5.28;1.23;;;15.30;99.90;;;;;;4411699;32;20474;-78
2021/09/29 09:41:22;;;;;;;3.22;1.77;;;15.30;99.90;;;;;;4413439;32;20960;-78
2021/09/29 09:43:58;;;;;;;3.37;1.67;;;15.30;99.90;;;;;;4414412;32;20076;-78
2021/09/29 09:46:24;;;;;;;8.73;2.30;;;15.30;99.90;;;;;;4410716;32;20070;-78
2021/09/29 09:49:08;;;;;;;2.17;1.42;;;15.30;99.90;;;;;;4414032;32;20058;-78
2021/09/29 09:51:46;;;;;;;12.02;3.12;;;15.30;99.90;;;;;;4417744;32;20116;-79
2021/09/29 09:54:11;;;;;;;2.53;1.12;;;15.30;99.90;;;;;;4415633;32;20479;-79
2021/09/29 09:56:41;;;;;;;4.28;1.70;;;15.40;99.90;;;;;;4417143;32;20458;-79
2021/09/29 09:59:07;;;;;;;2.95;1.80;;;15.30;99.90;;;;;;4416678;32;20085;-79
2021/09/29 10:01:34;;;;;;;3.78;1.58;;;15.30;99.90;;;;;;4408259;32;20763;-78
2021/09/29 10:04:11;;;;;;;3.10;2.03;;;15.40;99.90;;;;;;4411798;32;20107;-77
2021/09/29 10:06:37;;;;;;;8.30;1.77;;;15.40;99.90;;;;;;4407685;32;20518;-77
2021/09/29 10:09:10;;;;;;;6.35;2.37;;;15.40;99.90;;;;;;4412916;32;20111;-78
2021/09/29 10:12:58;;;;;;;14.45;2.70;;;15.50;99.90;;;;;;4418807;32;20098;-79
2021/09/29 10:14:37;;;;;;;12.25;2.22;;;15.50;99.90;;;;;;4404671;32;20074;-80
2021/09/29 10:23:26;;;;;;;23.27;1.20;;;15.60;99.90;;;;;;4397019;32;20121;-78
2021/09/29 10:26:08;;;;;;;2.83;1.53;;;15.60;99.90;;;;;;4403703;32;20189;-79
2021/09/29 10:28:23;;;;;;;1.80;1.40;;;15.60;99.90;;;;;;4400260;32;20112;-79
2021/09/29 10:31:11;;;;;;;2.10;1.20;;;15.60;99.90;;;;;;4410368;32;20409;-80
2021/09/29 10:33:42;;;;;;;2.42;1.55;;;15.60;99.90;;;;;;4414428;32;20114;-80
2021/09/29 10:36:23;;;;;;;2.83;1.48;;;15.60;99.90;;;;;;4419614;32;20088;-79
2021/09/29 10:41:02;;;;;;;2.33;1.23;;;15.70;99.90;;;;;;4416989;32;20062;-78
2021/09/29 10:42:03;;;;;;;3.33;1.73;;;15.70;99.90;;;;;;4398361;32;20101;-77
2021/09/29 10:45:18;;;;;;;1.20;0.95;;;15.70;99.90;;;;;;4406803;32;20073;-76
2021/09/29 10:47:47;;;;;;;6.70;1.60;;;15.60;99.90;;;;;;4406420;32;20073;-85
2021/09/29 10:50:42;;;;;;;1.40;1.12;;;15.70;99.90;;;;;;4412943;32;20229;-81
2021/09/29 11:02:58;;;;;;;2.25;1.58;;;15.70;99.90;;;;;;4409030;32;20085;-77
2021/09/29 11:03:22;;;;;;;2.95;0.90;;;15.80;99.90;;;;;;4395113;32;20126;-77
2021/09/29 11:07:04;;;;;;;1.75;1.33;;;15.90;99.90;;;;;;4405237;32;20117;-77
2021/09/29 11:28:13;;;;;;;1.73;1.50;;;15.90;99.90;;;;;;4402613;32;20065;-79
2021/09/29 11:28:51;;;;;;;3.03;1.83;;;15.90;99.90;;;;;;4407706;32;20081;-79
2021/09/29 11:31:21;;;;;;;0.77;0.77;;;15.90;99.90;;;;;;4414834;32;20086;-77
2021/09/29 11:50:14;;;;;;;1.15;1.05;;;15.90;99.90;;;;;;4395813;32;20161;-76
2021/09/29 12:07:59;;;;;;;2.75;0.93;;;16.10;99.90;;;;;;4398464;32;20078;-79
2021/09/29 12:09:53;;;;;;;3.20;1.02;;;16.10;99.90;;;;;;4404030;32;20070;-78
2021/09/29 12:12:25;;;;;;;1.40;1.20;;;16.20;99.90;;;;;;4416319;32;20106;-79
2021/09/29 12:14:59;;;;;;;1.75;0.88;;;16.20;99.90;;;;;;4418593;32;20089;-80
2021/09/29 12:17:27;;;;;;;1.98;1.58;;;16.20;99.90;;;;;;4416311;32;20074;-78
2021/09/29 12:19:56;;;;;;;0.93;0.88;;;16.20;99.90;;;;;;4415111;32;20093;-79
2021/09/29 12:22:24;;;;;;;3.42;1.37;;;16.20;99.90;;;;;;4415111;32;20114;-78
2021/09/29 12:25:02;;;;;;;0.50;0.50;;;16.20;99.90;;;;;;4410429;32;20065;-78
2021/09/29 12:30:21;;;;;;;1.30;1.00;;;16.10;99.90;;;;;;4413818;32;20224;-78
2021/09/29 12:33:34;;;;;;;2.58;0.80;;;16.10;99.90;;;;;;4413488;32;20148;-79
2021/09/29 12:35:54;;;;;;;5.60;1.58;;;16.10;99.90;;;;;;4412907;32;20082;-78
2021/09/29 12:38:32;;;;;;;0.75;0.75;;;16.10;99.90;;;;;;4412698;32;20470;-78
2021/09/29 12:40:58;;;;;;;9.55;1.15;;;16.20;99.90;;;;;;4407849;32;20380;-77
2021/09/29 12:43:25;;;;;;;1.58;0.93;;;16.20;99.90;;;;;;4414737;32;20094;-77
2021/09/29 12:45:56;;;;;;;0.95;0.90;;;16.10;99.90;;;;;;4410062;32;20081;-77
2021/09/29 12:48:25;;;;;;;1.35;1.08;;;16.20;99.90;;;;;;4411359;32;20074;-77
2021/09/29 12:50:56;;;;;;;0.57;0.45;;;16.20;99.90;;;;;;4408163;32;20608;-77
2021/09/29 12:55:57;;;;;;;1.05;0.95;;;16.30;99.90;;;;;;4403093;32;19973;-77
2021/09/29 12:58:23;;;;;;;1.37;0.98;;;16.40;99.90;;;;;;4406158;32;20418;-77
2021/09/29 13:00:48;;;;;;;1.23;1.02;;;16.40;99.90;;;;;;4406230;32;20550;-77
2021/09/29 13:03:14;;;;;;;0.60;0.60;;;16.50;99.90;;;;;;4405221;32;20065;-77
2021/09/29 13:05:41;;;;;;;0.68;0.55;;;16.50;99.90;;;;;;4406876;32;20506;-77
2021/09/29 13:08:07;;;;;;;1.37;0.88;;;16.60;99.90;;;;;;4404228;32;20110;-76
2021/09/29 13:10:32;;;;;;;1.02;0.93;;;16.70;99.90;;;;;;4407844;32;20496;-77
2021/09/29 13:12:58;;;;;;;1.27;0.60;;;16.70;99.90;;;;;;4409588;32;20130;-76
2021/09/29 13:15:24;;;;;;;2.10;0.80;;;16.80;99.90;;;;;;4411490;32;20069;-76
2021/09/29 13:17:52;;;;;;;1.27;1.10;;;16.80;99.90;;;;;;4407461;32;21147;-75
2021/09/29 13:20:25;;;;;;;1.25;0.82;;;16.90;99.90;;;;;;4410729;32;20179;-75
2021/09/29 13:22:56;;;;;;;1.48;1.00;;;16.90;99.90;;;;;;4412613;32;20091;-75
2021/09/29 13:35:11;;;;;;;0.93;0.70;;;16.90;99.90;;;;;;4401501;32;20121;-74
2021/09/29 13:36:39;;;;;;;3.55;0.85;;;16.80;99.90;;;;;;4403190;32;20534;-75
2021/09/29 13:38:52;;;;;;;1.45;0.80;;;16.70;99.90;;;;;;4402364;32;20133;-76
2021/09/29 13:41:17;;;;;;;1.45;0.93;;;16.70;99.90;;;;;;4409232;32;20086;-77
2021/09/29 13:43:43;;;;;;;0.70;0.70;;;16.60;99.90;;;;;;4410479;32;20094;-76
2021/09/29 13:46:09;;;;;;;0.60;0.60;;;16.60;99.90;;;;;;4412155;32;20124;-77
2021/09/29 13:48:36;;;;;;;1.10;1.00;;;16.60;99.90;;;;;;4414142;32;20132;-76
2021/09/29 13:51:01;;;;;;;1.65;1.02;;;16.50;99.90;;;;;;4413687;32;20127;-75
2021/09/29 13:53:28;;;;;;;0.68;0.68;;;16.40;99.90;;;;;;4411243;32;20078;-74
2021/09/29 13:55:56;;;;;;;0.60;0.60;;;16.50;99.90;;;;;;4409224;32;20092;-74
2021/09/29 14:02:07;;;;;;;1.23;0.88;;;16.60;99.90;;;;;;4414205;32;20049;-74
2021/09/29 14:03:49;;;;;;;2.85;1.20;;;16.60;99.90;;;;;;4403021;32;20368;-74
2021/09/29 14:14:42;;;;;;;0.75;0.73;;;16.70;99.90;;;;;;4408696;32;20086;-75
2021/09/29 14:14:53;;;;;;;1.08;0.75;;;16.70;99.90;;;;;;4410611;32;20103;-75
2021/09/29 14:28:35;;;;;;;1.48;0.60;;;17.40;99.90;;;;;;4402368;32;20097;-76
2021/09/29 14:30:49;;;;;;;1.12;0.82;;;17.30;99.90;;;;;;4405928;32;20093;-76
2021/09/29 14:33:25;;;;;;;0.68;0.68;;;17.40;99.90;;;;;;4389506;32;20370;-75
2021/09/29 14:35:51;;;;;;;1.37;0.95;;;17.20;99.90;;;;;;4407927;32;20058;-75
2021/09/29 14:38:17;;;;;;;1.77;0.77;;;17.30;99.90;;;;;;4411244;32;20184;-76
2021/09/29 14:40:42;;;;;;;0.40;0.40;;;17.20;99.90;;;;;;4412165;32;20058;-74
2021/09/29 14:43:08;;;;;;;0.65;0.65;;;17.30;99.90;;;;;;4412047;32;20568;-76
2021/09/29 14:45:35;;;;;;;2.15;0.93;;;17.20;99.90;;;;;;4413446;32;20330;-76
2021/09/29 14:48:00;;;;;;;0.68;0.68;;;17.20;99.90;;;;;;4415492;32;20128;-76
2021/09/29 14:50:27;;;;;;;0.85;0.85;;;17.10;99.90;;;;;;4413296;32;20080;-76
2021/09/29 14:52:56;;;;;;;0.62;0.52;;;17.10;99.90;;;;;;4414813;32;20105;-75
2021/09/29 14:55:22;;;;;;;3.37;0.68;;;17.00;99.90;;;;;;4414025;32;20538;-77
2021/09/29 14:57:48;;;;;;;1.10;0.88;;;17.00;99.90;;;;;;4415693;32;20458;-74
2021/09/29 15:00:14;;;;;;;0.60;0.60;;;17.00;99.90;;;;;;4416056;32;20065;-74
2021/09/29 15:02:39;;;;;;;0.52;0.52;;;17.10;99.90;;;;;;4416473;32;20165;-76